Malad, Idaho
Current Conditions -  °F | °C
As of 9:51 PM on Saturday 20 Dec 2014 (Local Time) from KLGU Reporting Station
Overcast Overcast  
Wind Chill: 33°   Ceiling: 3600
Heat Index: 40°   Visibility: 10mi
Dew Point: 34°   Wind: 10mph
Humidity: 79%   Direction: 160°SSE
Pressure: 30.02"   Gusts: NA
Location:  42.2285°N, 112.313°W
Report Text: KLGU 210451Z AUTO 16009KT 10SM BKN036 BKN048 OVC070 04/01 A3002 RMK AO2 RAE39 SLP165 P0002 T00440011
Loading
Personal Weather Stations






























Interactive Weather Map New forecast layout! Learn more

10-Day Weather Forecast

Advertisements
Track Severe Weather on mobile